Flight Track Log - Related Links

Times and Time Zones

All times are in EDT time to prevent confusion due to time zone crossing. See the GLA51N flight status page for this flight to view local times or setup timezone preferences in your user account.

Time Position Orientation Groundspeed Altitude Reporting Facility
EDT Latitude Longitude Course Direction KTS MPH feet Rate Location/Type
Sun 10:14:47 AM 40.2442 -100.7133 284° West 177 204 5,600  Level Denver Center
Sun 10:15:49 AM 40.2689 -100.7717 299° West 186 214 7,200 1,463 Climbing Denver Center
Sun 10:16:00 AM 40.4651 -100.9719 290° West  Level FlightAware Approximate
Sun 10:16:50 AM 40.2944 -100.8414 296° West 189 217 8,600  Level Denver Center
Sun 10:17:00 AM 40.4877 -101.0549 290° West  Level FlightAware Approximate
Sun 10:17:52 AM 40.3108 -100.9072 288° West 193 222 9,600  Level Denver Center
Sun 10:18:00 AM 40.5123 -101.1369 294° West  Level FlightAware Approximate
Sun 10:18:53 AM 40.3392 -100.9675 302° West 199 229 10,500  Level Denver Center
Sun 10:19:00 AM 40.5395 -101.2175 295° West  Level FlightAware Approximate
Sun 10:19:55 AM 40.3775 -101.0361 306° West 207 238 11,500  Level Denver Center
Sun 10:20:56 AM 40.3994 -101.1022 294° West 207 238 12,400 927 Climbing Denver Center
Sun 10:21:58 AM 40.4236 -101.1789 293° West 204 235 13,400 1,122 Climbing Denver Center
Sun 10:22:59 AM 40.4478 -101.2439 296° West 206 237 14,700 1,122 Climbing Denver Center
Sun 10:24:01 AM 40.4706 -101.3083 295° West 204 235 15,700 1,113 Climbing Denver Center
Sun 10:25:03 AM 40.4997 -101.3819 298° West 204 235 17,000 976 Climbing Denver Center
Sun 10:26:04 AM 40.5208 -101.4483 293° West 205 236 17,700 829 Climbing Denver Center
Sun 10:27:06 AM 40.5403 -101.5275 288° West 205 236 18,700 871 Climbing Denver Center
Sun 10:28:08 AM 40.5461 -101.5997 276° West 208 239 19,500 1,122 Climbing Denver Center
Sun 10:29:09 AM 40.5503 -101.6761 274° West 187 215 21,000 976 Climbing Denver Center
Sun 10:30:11 AM 40.5556 -101.7436 276° West 194 223 21,500 581 Climbing Denver Center
Sun 10:31:13 AM 40.5600 -101.8131 275° West 198 228 22,200 677 Climbing Denver Center
Sun 10:32:15 AM 40.5650 -101.8983 274° West 208 239 22,900 585 Climbing Denver Center
Sun 10:33:16 AM 40.5703 -101.9708 275° West 208 239 23,400 439 Climbing Denver Center
Sun 10:34:18 AM 40.5775 -102.0583 276° West 215 247 23,800 290 Climbing Denver Center
Sun 10:35:20 AM 40.5844 -102.1372 277° West 226 260 24,000 48 Climbing Denver Center
Sun 10:36:22 AM 40.5933 -102.2325 277° West 236 272 23,900  Descending Denver Center
Sun 10:37:24 AM 40.5928 -102.3169 270° West 242 278 24,000 48 Climbing Denver Center
Sun 10:38:26 AM 40.5886 -102.3997 266° West 237 273 24,000  Level Denver Center
Sun 10:39:27 AM 40.5856 -102.4989 268° West 241 277 24,000  Level Denver Center
Sun 10:40:29 AM 40.5786 -102.5825 264° West 239 275 24,000  Level Denver Center
Sun 10:41:31 AM 40.5747 -102.6719 267° West 241 277 24,000  Level Denver Center
Sun 10:42:33 AM 40.5747 -102.7750 270° West 239 275 24,000  Level Denver Center
Sun 10:43:35 AM 40.5694 -102.8642 266° West 241 277 24,000 -48 Level Denver Center
Sun 10:44:37 AM 40.5575 -102.9514 260° West 241 277 23,900 -48 Descending Denver Center
Sun 10:45:39 AM 40.5436 -103.0389 258° West 243 280 23,900  Level Denver Center
Sun 10:46:41 AM 40.5358 -103.1278 263° West 243 280 23,900 48 Level Denver Center
Sun 10:47:43 AM 40.5331 -103.2167 268° West 242 278 24,000 -532 Climbing Denver Center
Sun 10:48:45 AM 40.5211 -103.3067 260° West 249 287 22,800 -1,210 Descending Denver Center
Sun 10:49:47 AM 40.5117 -103.4019 263° West 259 298 21,500 -1,306 Descending Denver Center
Sun 10:50:49 AM 40.4989 -103.5089 261° West 254 292 20,100 -1,355 Descending Denver Center
Sun 10:51:51 AM 40.4853 -103.6003 259° West 253 291 18,700 -1,694 Descending Denver Center
Sun 10:52:53 AM 40.4700 -103.6950 258° West 262 302 16,600 -2,032 Descending Denver Center
Sun 10:53:55 AM 40.4553 -103.7908 259° West 266 306 14,500 -1,597 Descending Denver Center
Sun 10:54:57 AM 40.4217 -103.8883 246° West 293 337 13,300 -677 Descending Denver Center
Sun 10:55:59 AM 40.3744 -103.9672 232° Southwest 276 318 13,100 -435 Descending Denver Center
Sun 10:57:01 AM 40.3286 -104.0592 237° Southwest 278 320 12,400 -677 Descending Denver Center
Sun 10:58:03 AM 40.2881 -104.1444 238° Southwest 277 319 11,700 -532 Descending Denver Center
Sun 10:59:05 AM 40.2475 -104.2372 240° Southwest 272 313 11,300 -339 Descending Denver Center
Sun 11:00:07 AM 40.2508 -104.3286 273° West 250 288 11,000 -435 Descending Denver Center
Sun 11:01:09 AM 40.2411 -104.4139 262° West 241 277 10,400 -823 Descending Denver Center
Sun 11:02:11 AM 40.2186 -104.5031 252° West 241 277 9,300 -581 Descending Denver Center
Sun 11:03:13 AM 40.1803 -104.5700 233° Southwest 234 269 9,200 -194 Descending Denver Center
Sun 11:04:15 AM 40.1236 -104.6181 213° Southwest 226 260 8,900 -484 Descending Denver Center
Sun 11:05:17 AM 40.0783 -104.6583 214° Southwest 185 213 8,200 -435 Descending Denver Center
Sun 11:06:19 AM 40.0289 -104.6861 203° Southwest 184 212 8,000 -435 Descending Denver Center
Sun 11:07:21 AM 39.9783 -104.6864 180° South 184 212 7,300 -919 Descending Denver Center
Sun 11:08:23 AM 39.9311 -104.6864 180° South 160 184 6,100 -919 Descending Denver Center
Sun 11:09:25 AM 39.8900 -104.6869 181° South 150 173 5,400 -677 Descending Denver Center
Sun 11:11:00 AM 39.8617 -104.6732 229° Southwest  Level Estimated
Sun 11:18:00 AM 39.8617 -104.6732 229° Southwest  Level Estimated
Sun 11:19:00 AM 39.8617 -104.6732 229° Southwest  Level Estimated
Sun 11:20:00 AM 39.8617 -104.6732 229° Southwest  Level Estimated

Login

Don't have an account? Register now (free) for customized features, flight alerts, and more!